Royse City's Hourly Summary for Wednesday, July 11, 2018
Hour Temp
(f)
RH
(%)
Solar Rad.
(MJ/m2)
Rainfall
(in)
Wind
(mph)
7/11/2018 12:00 AM 78 73 0 0 0
7/11/2018 1:00 AM 75 80 0 0 0
7/11/2018 2:00 AM 75 84 0 0 0
7/11/2018 3:00 AM 74 87 0 0 0
7/11/2018 4:00 AM 73 97 0 0 0
7/11/2018 5:00 AM 74 99 0 0 0
7/11/2018 6:00 AM 74 93 0 0 0
7/11/2018 7:00 AM 74 94 0.03 0 0
7/11/2018 8:00 AM 76 87 0.24 0 0
7/11/2018 9:00 AM 79 74 0.87 0 0
7/11/2018 10:00 AM 83 62 1.24 0 0
7/11/2018 11:00 AM 87 55 1.75 0 0
7/11/2018 12:00 PM 89 48 2.16 0 0
7/11/2018 1:00 PM 91 43 3.33 0 0
7/11/2018 2:00 PM 93 39 2.88 0 0
7/11/2018 3:00 PM 93 38 1.22 0 0
7/11/2018 4:00 PM 94 31 2.09 0 0.01
7/11/2018 5:00 PM 92 33 0.73 0 0
7/11/2018 6:00 PM 86 53 0.4 0 0
7/11/2018 7:00 PM 86 57 0.38 0 0
7/11/2018 8:00 PM 83 62 0.18 0 0
7/11/2018 9:00 PM 81 64 0.02 0 0
7/11/2018 10:00 PM 79 66 0 0 0
7/11/2018 11:00 PM 77 73 0 0 0
Data Summary 81 66 17.52 0.00 0.00